Time;durP1;ratioP1;P1;durP2;ratioP2;P2;SDS_P1;SDS_P2;PMS_P1;PMS_P2;Temp;Humidity;BMP_temperature;BMP_pressure;BME280_temperature;BME280_humidity;BME280_pressure;Samples;Min_cycle;Max_cycle;Signal;HPM_P1;HPM_P2
2023/04/22 00:00:43;;;;;;;0.00;0.00;;;11.50;84.80;;;;;;4970217;28;20046;-66
2023/04/22 00:03:09;;;;;;;0.00;0.00;;;11.30;84.70;;;;;;4952469;28;20058;-66
2023/04/22 00:05:35;;;;;;;0.00;0.00;;;11.40;84.80;;;;;;4969793;28;20407;-67
2023/04/22 00:08:00;;;;;;;0.00;0.00;;;11.40;84.90;;;;;;4970041;28;20122;-67
2023/04/22 00:10:26;;;;;;;0.00;0.00;;;11.40;85.10;;;;;;4971114;28;20143;-66
2023/04/22 00:12:52;;;;;;;0.00;0.00;;;11.40;85.10;;;;;;4970579;28;20046;-67
2023/04/22 00:15:20;;;;;;;0.00;0.00;;;11.40;84.90;;;;;;4970034;28;20058;-66
2023/04/22 00:17:49;;;;;;;0.00;0.00;;;11.40;84.70;;;;;;4952364;28;20054;-67
2023/04/22 00:20:15;;;;;;;0.00;0.00;;;11.40;84.80;;;;;;4969993;28;20043;-66
2023/04/22 00:22:40;;;;;;;0.00;0.00;;;11.40;84.80;;;;;;4969497;28;20549;-67
2023/04/22 00:25:06;;;;;;;0.00;0.00;;;11.40;84.70;;;;;;4970130;28;20170;-67
2023/04/22 00:27:32;;;;;;;0.00;0.00;;;11.30;84.60;;;;;;4970820;28;20162;-67
2023/04/22 00:29:58;;;;;;;0.00;0.00;;;11.40;84.60;;;;;;4973541;28;20141;-68
2023/04/22 00:32:23;;;;;;;0.00;0.00;;;11.30;84.60;;;;;;4972719;28;20035;-67
2023/04/22 00:34:49;;;;;;;0.00;0.00;;;11.30;84.70;;;;;;4973190;28;20454;-67
2023/04/22 00:37:15;;;;;;;1.35;1.25;;;11.20;84.70;;;;;;4973508;28;20043;-66
2023/04/22 00:39:40;;;;;;;0.00;0.00;;;11.10;84.70;;;;;;4972966;28;20042;-66
2023/04/22 00:42:06;;;;;;;0.00;0.00;;;11.10;84.50;;;;;;4958442;28;20062;-67
2023/04/22 00:44:32;;;;;;;0.00;0.00;;;11.10;84.60;;;;;;4972318;28;20057;-67
2023/04/22 00:46:58;;;;;;;0.00;0.00;;;11.10;84.80;;;;;;4955749;28;20039;-67
2023/04/22 00:49:26;;;;;;;0.00;0.00;;;11.00;84.70;;;;;;4973121;28;20047;-67
2023/04/22 00:51:52;;;;;;;0.00;0.00;;;11.00;84.80;;;;;;4972676;28;20051;-67
2023/04/22 00:54:18;;;;;;;0.00;0.00;;;10.90;84.90;;;;;;4972939;28;20070;-67
2023/04/22 00:56:44;;;;;;;0.00;0.00;;;10.90;84.80;;;;;;4972756;28;20420;-67
2023/04/22 00:59:11;;;;;;;0.00;0.00;;;10.90;84.80;;;;;;4969588;28;20419;-66
2023/04/22 01:01:36;;;;;;;0.00;0.00;;;10.80;84.90;;;;;;4971465;28;20117;-67
2023/04/22 01:04:03;;;;;;;0.00;0.00;;;10.80;84.90;;;;;;4972376;28;20495;-67
2023/04/22 01:06:32;;;;;;;0.00;0.00;;;10.70;84.80;;;;;;4972637;28;20504;-67
2023/04/22 01:08:58;;;;;;;0.00;0.00;;;10.60;84.70;;;;;;4972496;28;20039;-66
2023/04/22 01:11:24;;;;;;;0.00;0.00;;;10.60;84.70;;;;;;4971946;28;20047;-67
2023/04/22 01:13:50;;;;;;;0.00;0.00;;;10.50;84.90;;;;;;4973531;28;20043;-67
2023/04/22 01:16:16;;;;;;;0.10;0.10;;;10.50;85.00;;;;;;4972542;28;20042;-67
2023/04/22 01:18:42;;;;;;;0.10;0.10;;;10.40;85.00;;;;;;4972553;28;20407;-67
2023/04/22 01:21:07;;;;;;;0.08;0.08;;;10.40;85.00;;;;;;4972255;28;20035;-68
2023/04/22 01:23:33;;;;;;;0.00;0.00;;;10.40;85.00;;;;;;4954961;28;20042;-66
2023/04/22 01:25:59;;;;;;;0.20;0.20;;;10.40;84.90;;;;;;4971503;28;20047;-67
2023/04/22 01:28:25;;;;;;;0.00;0.00;;;10.40;85.00;;;;;;4972037;28;20086;-67
2023/04/22 01:30:51;;;;;;;0.00;0.00;;;10.40;85.10;;;;;;4971980;28;20038;-67
2023/04/22 01:33:17;;;;;;;0.00;0.00;;;10.40;85.10;;;;;;4972155;28;20042;-67
2023/04/22 01:35:43;;;;;;;0.10;0.10;;;10.40;85.00;;;;;;4971852;28;20047;-67
2023/04/22 01:38:11;;;;;;;0.00;0.00;;;10.30;84.80;;;;;;4971635;28;20118;-67
2023/04/22 01:40:37;;;;;;;0.00;0.00;;;10.30;84.80;;;;;;4971197;28;20057;-66
2023/04/22 01:43:04;;;;;;;0.00;0.00;;;10.20;84.70;;;;;;4955026;28;20129;-67
2023/04/22 01:45:30;;;;;;;0.00;0.00;;;10.10;84.80;;;;;;4954238;28;20746;-67
2023/04/22 01:47:56;;;;;;;0.00;0.00;;;10.10;85.20;;;;;;4971741;28;20054;-67
2023/04/22 01:50:22;;;;;;;0.00;0.00;;;10.10;85.30;;;;;;4972061;28;20050;-67
2023/04/22 01:52:48;;;;;;;0.10;0.10;;;10.10;85.20;;;;;;4971891;28;20053;-67
2023/04/22 01:55:14;;;;;;;0.00;0.00;;;10.10;85.10;;;;;;4970953;28;20416;-67
2023/04/22 01:57:40;;;;;;;0.00;0.00;;;10.00;85.10;;;;;;4972084;28;20164;-67
2023/04/22 02:00:07;;;;;;;0.08;0.08;;;10.00;85.00;;;;;;4972266;28;20571;-66
2023/04/22 02:02:33;;;;;;;0.00;0.00;;;10.00;85.00;;;;;;4971859;28;20491;-68
2023/04/22 02:04:58;;;;;;;0.00;0.00;;;10.00;85.10;;;;;;4971341;28;20038;-67
2023/04/22 02:07:24;;;;;;;0.00;0.00;;;9.90;85.20;;;;;;4954483;28;20074;-66
2023/04/22 02:09:50;;;;;;;0.00;0.00;;;9.90;85.10;;;;;;4971313;28;20043;-66
2023/04/22 02:12:16;;;;;;;0.05;0.05;;;9.90;85.00;;;;;;4971421;28;20059;-67
2023/04/22 02:14:41;;;;;;;0.05;0.05;;;9.80;84.90;;;;;;4971234;28;20043;-67
2023/04/22 02:17:07;;;;;;;0.00;0.00;;;9.90;84.90;;;;;;4971535;28;20141;-66
2023/04/22 02:19:32;;;;;;;0.00;0.00;;;9.80;84.80;;;;;;4953395;28;20081;-67
2023/04/22 02:21:58;;;;;;;0.00;0.00;;;9.70;84.80;;;;;;4954399;28;20070;-67
2023/04/22 02:24:24;;;;;;;0.00;0.00;;;9.70;85.00;;;;;;4970446;28;20058;-67
2023/04/22 02:26:50;;;;;;;0.00;0.00;;;9.70;85.30;;;;;;4971565;28;20785;-67
2023/04/22 02:29:16;;;;;;;0.00;0.00;;;9.70;85.20;;;;;;4971233;28;20051;-67
2023/04/22 02:31:41;;;;;;;0.00;0.00;;;9.60;85.20;;;;;;4954370;28;20054;-67
2023/04/22 02:34:07;;;;;;;0.00;0.00;;;9.70;85.20;;;;;;4970835;28;20043;-67
2023/04/22 02:36:33;;;;;;;0.00;0.00;;;9.60;85.30;;;;;;4970229;28;20047;-67
2023/04/22 02:39:00;;;;;;;0.00;0.00;;;9.70;85.30;;;;;;4953823;28;20089;-67
2023/04/22 02:41:26;;;;;;;0.00;0.00;;;9.60;85.30;;;;;;4971109;28;20043;-67
2023/04/22 02:43:52;;;;;;;0.00;0.00;;;9.60;85.20;;;;;;4971258;28;20061;-67
2023/04/22 02:46:17;;;;;;;0.00;0.00;;;9.60;85.20;;;;;;4970029;28;20185;-67
2023/04/22 02:48:43;;;;;;;0.00;0.00;;;9.60;85.30;;;;;;4970884;28;20121;-67
2023/04/22 02:51:09;;;;;;;0.00;0.00;;;9.60;85.30;;;;;;4970139;28;20038;-67
2023/04/22 02:53:35;;;;;;;0.00;0.00;;;9.60;85.40;;;;;;4970981;28;20503;-67
2023/04/22 02:56:00;;;;;;;0.00;0.00;;;9.60;85.50;;;;;;4969937;28;20059;-66
2023/04/22 02:58:26;;;;;;;0.00;0.00;;;9.50;85.30;;;;;;4970709;28;20051;-67
2023/04/22 03:00:52;;;;;;;0.00;0.00;;;9.50;85.20;;;;;;4970476;28;20511;-66
2023/04/22 03:03:18;;;;;;;0.00;0.00;;;9.50;85.30;;;;;;4970670;28;20049;-66
2023/04/22 03:05:43;;;;;;;0.00;0.00;;;9.50;85.40;;;;;;4969872;28;20042;-67
2023/04/22 03:08:09;;;;;;;0.13;0.13;;;9.50;85.40;;;;;;4970200;28;20039;-67
2023/04/22 03:10:35;;;;;;;0.10;0.10;;;9.50;85.40;;;;;;4970023;28;20049;-67
2023/04/22 03:13:00;;;;;;;0.00;0.00;;;9.50;85.40;;;;;;4953427;28;20585;-68
2023/04/22 03:15:26;;;;;;;0.00;0.00;;;9.50;85.40;;;;;;4969910;28;20317;-67
2023/04/22 03:17:51;;;;;;;0.00;0.00;;;9.50;85.20;;;;;;4970302;28;20186;-67
2023/04/22 03:20:17;;;;;;;0.00;0.00;;;9.40;85.20;;;;;;4970293;28;20129;-67
2023/04/22 03:22:43;;;;;;;0.00;0.00;;;9.40;85.40;;;;;;4970863;28;20160;-67
2023/04/22 03:25:09;;;;;;;0.00;0.00;;;9.30;85.40;;;;;;4969732;28;20042;-67
2023/04/22 03:27:35;;;;;;;0.00;0.00;;;9.30;85.30;;;;;;4970570;28;20051;-67
2023/04/22 03:30:01;;;;;;;0.00;0.00;;;9.20;85.10;;;;;;4970031;28;20050;-67
2023/04/22 03:32:27;;;;;;;0.00;0.00;;;9.20;85.10;;;;;;4970244;28;20054;-67
2023/04/22 03:34:53;;;;;;;0.00;0.00;;;9.10;85.10;;;;;;4969715;28;20046;-67
2023/04/22 03:37:18;;;;;;;0.00;0.00;;;9.10;85.20;;;;;;4970129;28;20039;-67
2023/04/22 03:39:44;;;;;;;0.00;0.00;;;9.10;85.30;;;;;;4969998;28;20407;-66
2023/04/22 03:42:11;;;;;;;0.00;0.00;;;9.00;85.30;;;;;;4969619;28;20046;-67
2023/04/22 03:44:36;;;;;;;0.00;0.00;;;8.90;85.20;;;;;;4949638;28;20057;-66
2023/04/22 03:47:02;;;;;;;0.00;0.00;;;8.90;85.20;;;;;;4970458;28;20043;-68
2023/04/22 03:49:27;;;;;;;0.00;0.00;;;8.90;85.20;;;;;;4953242;28;20049;-67
2023/04/22 03:51:53;;;;;;;0.00;0.00;;;8.90;85.10;;;;;;4970197;28;20051;-67
2023/04/22 03:54:19;;;;;;;0.00;0.00;;;8.80;85.20;;;;;;4969598;28;20054;-67
2023/04/22 03:56:44;;;;;;;0.00;0.00;;;8.90;85.30;;;;;;4969354;28;20604;-67
2023/04/22 03:59:10;;;;;;;0.00;0.00;;;8.80;85.40;;;;;;4969557;28;20047;-66
2023/04/22 04:01:35;;;;;;;0.10;0.10;;;8.80;85.60;;;;;;4971360;28;20078;-67
2023/04/22 04:04:01;;;;;;;0.00;0.00;;;8.70;85.60;;;;;;4974055;28;20043;-67
2023/04/22 04:06:28;;;;;;;0.00;0.00;;;8.70;85.70;;;;;;4956353;28;20050;-68
2023/04/22 04:08:53;;;;;;;0.00;0.00;;;8.70;85.80;;;;;;4973946;28;20049;-66
2023/04/22 04:11:19;;;;;;;0.00;0.00;;;8.70;85.90;;;;;;4973492;28;20043;-67
2023/04/22 04:13:45;;;;;;;0.00;0.00;;;8.70;85.80;;;;;;4956255;28;20054;-67
2023/04/22 04:16:11;;;;;;;0.00;0.00;;;8.70;85.80;;;;;;4973657;28;20039;-66
2023/04/22 04:18:37;;;;;;;0.00;0.00;;;8.70;86.00;;;;;;4972591;28;20499;-67
2023/04/22 04:21:03;;;;;;;0.00;0.00;;;8.70;85.90;;;;;;4971467;28;20051;-67
2023/04/22 04:23:28;;;;;;;0.00;0.00;;;8.70;85.70;;;;;;4956124;28;20034;-68
2023/04/22 04:25:54;;;;;;;0.00;0.00;;;8.70;85.70;;;;;;4973498;28;20043;-67
2023/04/22 04:28:20;;;;;;;0.05;0.05;;;8.70;85.80;;;;;;4973103;28;20045;-68
2023/04/22 04:30:46;;;;;;;0.00;0.00;;;8.70;85.80;;;;;;4972326;28;20053;-67
2023/04/22 04:33:15;;;;;;;0.00;0.00;;;8.60;85.90;;;;;;4972346;28;20042;-69
2023/04/22 04:35:42;;;;;;;0.08;0.08;;;8.60;85.90;;;;;;4972666;28;20074;-68
2023/04/22 04:38:07;;;;;;;0.00;0.00;;;8.60;85.80;;;;;;4972401;28;20086;-68
2023/04/22 04:40:35;;;;;;;0.00;0.00;;;8.60;85.80;;;;;;4972504;28;20112;-68
2023/04/22 04:43:07;;;;;;;0.00;0.00;;;8.60;85.80;;;;;;4972578;28;20043;-70
2023/04/22 04:45:33;;;;;;;0.00;0.00;;;8.60;85.80;;;;;;4972436;28;20055;-70
2023/04/22 04:47:59;;;;;;;0.00;0.00;;;8.60;86.20;;;;;;4972742;28;20047;-70
2023/04/22 04:50:28;;;;;;;0.10;0.10;;;8.70;86.20;;;;;;4973085;28;20455;-69
2023/04/22 04:52:53;;;;;;;0.00;0.00;;;8.70;86.30;;;;;;4973094;28;20053;-69
2023/04/22 04:55:19;;;;;;;0.00;0.00;;;8.80;86.50;;;;;;4972152;28;20039;-69
2023/04/22 04:57:45;;;;;;;0.00;0.00;;;8.80;86.40;;;;;;4955547;28;20050;-68
2023/04/22 05:00:12;;;;;;;0.00;0.00;;;8.80;86.40;;;;;;4956190;28;20043;-67
2023/04/22 05:02:38;;;;;;;0.00;0.00;;;8.80;86.30;;;;;;4973240;28;20047;-67
2023/04/22 05:05:05;;;;;;;0.00;0.00;;;8.70;86.20;;;;;;4971408;28;20054;-67
2023/04/22 05:07:31;;;;;;;0.00;0.00;;;8.70;86.10;;;;;;4955327;28;20042;-66
2023/04/22 05:09:56;;;;;;;0.00;0.00;;;8.70;86.10;;;;;;4971672;28;20031;-67
2023/04/22 05:12:22;;;;;;;0.00;0.00;;;8.60;86.10;;;;;;4972454;28;20042;-66
2023/04/22 05:14:47;;;;;;;0.00;0.00;;;8.60;86.10;;;;;;4967615;28;20039;-68
2023/04/22 05:17:13;;;;;;;0.00;0.00;;;8.70;86.20;;;;;;4954537;28;20511;-68
2023/04/22 05:19:39;;;;;;;0.00;0.00;;;9.00;89.00;;;;;;4971776;28;20513;-67
2023/04/22 05:22:05;;;;;;;0.00;0.00;;;9.10;87.50;;;;;;4972924;28;20136;-67
2023/04/22 05:24:31;;;;;;;0.00;0.00;;;9.10;87.00;;;;;;4972656;28;20046;-67
2023/04/22 05:26:57;;;;;;;0.00;0.00;;;9.00;86.70;;;;;;4972309;28;20054;-68
2023/04/22 05:29:22;;;;;;;0.00;0.00;;;9.10;86.50;;;;;;4955092;28;20104;-67
2023/04/22 05:31:48;;;;;;;0.00;0.00;;;9.00;86.30;;;;;;4955305;28;20069;-67
2023/04/22 05:34:14;;;;;;;0.00;0.00;;;8.90;86.20;;;;;;4954788;28;20404;-67
2023/04/22 05:36:39;;;;;;;0.00;0.00;;;9.00;86.20;;;;;;4972193;28;20050;-67
2023/04/22 05:39:06;;;;;;;0.00;0.00;;;8.90;86.20;;;;;;4971804;28;20050;-67
2023/04/22 05:41:31;;;;;;;0.00;0.00;;;8.90;86.00;;;;;;4971783;28;20166;-67
2023/04/22 05:43:57;;;;;;;0.00;0.00;;;8.90;85.90;;;;;;4971991;28;20129;-67
2023/04/22 05:46:23;;;;;;;0.00;0.00;;;8.80;85.80;;;;;;4972131;28;20521;-67
2023/04/22 05:48:48;;;;;;;0.00;0.00;;;8.80;85.70;;;;;;4972247;28;20521;-66
2023/04/22 05:51:14;;;;;;;0.00;0.00;;;8.80;85.70;;;;;;4971948;28;20659;-68
2023/04/22 05:53:39;;;;;;;0.00;0.00;;;8.80;85.70;;;;;;4972040;28;20133;-69
2023/04/22 05:56:05;;;;;;;0.00;0.00;;;8.80;85.90;;;;;;4960608;28;20051;-67
2023/04/22 05:58:31;;;;;;;0.00;0.00;;;8.70;86.00;;;;;;4969870;28;20050;-68
2023/04/22 06:00:56;;;;;;;0.10;0.10;;;8.80;86.10;;;;;;4971553;28;20054;-68
2023/04/22 06:03:22;;;;;;;0.00;0.00;;;8.80;86.10;;;;;;4971946;28;20047;-69
2023/04/22 06:05:47;;;;;;;0.00;0.00;;;8.80;86.30;;;;;;4971467;28;20046;-69
2023/04/22 06:08:13;;;;;;;0.00;0.00;;;8.90;86.40;;;;;;4971665;28;20515;-68
2023/04/22 06:10:39;;;;;;;0.22;0.22;;;8.90;86.60;;;;;;4970860;28;20039;-68
2023/04/22 06:13:04;;;;;;;0.00;0.00;;;9.00;86.50;;;;;;4970779;28;20047;-69
2023/04/22 06:15:30;;;;;;;0.10;0.10;;;9.00;86.60;;;;;;4965564;28;20042;-69
2023/04/22 06:17:55;;;;;;;0.00;0.00;;;9.10;86.60;;;;;;4969951;28;20458;-68
2023/04/22 06:20:21;;;;;;;0.00;0.00;;;9.10;86.50;;;;;;4972150;28;20062;-68
2023/04/22 06:22:46;;;;;;;0.00;0.00;;;9.10;86.40;;;;;;4971292;28;20050;-68
2023/04/22 06:25:12;;;;;;;0.00;0.00;;;9.20;86.50;;;;;;4969577;28;20047;-67
2023/04/22 06:27:38;;;;;;;0.00;0.00;;;9.20;86.50;;;;;;4970146;28;20403;-68
2023/04/22 06:30:04;;;;;;;0.00;0.00;;;9.20;86.70;;;;;;4971369;28;20404;-68
2023/04/22 06:32:30;;;;;;;0.00;0.00;;;9.30;86.60;;;;;;4970325;28;20042;-68
2023/04/22 06:34:55;;;;;;;0.00;0.00;;;9.30;86.50;;;;;;4970914;28;20039;-68
2023/04/22 06:37:21;;;;;;;0.00;0.00;;;9.40;86.80;;;;;;4970942;28;20170;-68
2023/04/22 06:39:46;;;;;;;0.22;0.22;;;9.40;86.70;;;;;;4946821;29;20125;-67
2023/04/22 06:42:12;;;;;;;0.00;0.00;;;9.50;86.80;;;;;;4959053;28;20431;-68
2023/04/22 06:44:38;;;;;;;0.00;0.00;;;9.50;86.90;;;;;;4970300;28;20110;-68
2023/04/22 06:47:03;;;;;;;0.00;0.00;;;9.60;86.90;;;;;;4968712;28;20164;-68
2023/04/22 06:49:29;;;;;;;0.00;0.00;;;9.60;86.80;;;;;;4967027;28;20035;-67
2023/04/22 06:51:54;;;;;;;0.00;0.00;;;9.70;86.90;;;;;;4960212;28;20054;-65
2023/04/22 06:54:20;;;;;;;0.00;0.00;;;9.70;86.90;;;;;;4953220;28;20094;-66
2023/04/22 06:56:46;;;;;;;0.00;0.00;;;9.80;87.00;;;;;;4967784;28;20053;-66
2023/04/22 06:59:11;;;;;;;0.00;0.00;;;9.90;87.10;;;;;;4952556;28;20043;-65
2023/04/22 07:01:37;;;;;;;0.00;0.00;;;9.90;87.30;;;;;;4969868;28;20067;-66
2023/04/22 07:04:02;;;;;;;0.00;0.00;;;10.00;87.30;;;;;;4970275;28;20057;-66
2023/04/22 07:06:28;;;;;;;0.00;0.00;;;10.10;87.40;;;;;;4959159;28;20078;-66
2023/04/22 07:08:54;;;;;;;0.00;0.00;;;10.20;87.50;;;;;;4950464;29;20047;-66
2023/04/22 07:11:20;;;;;;;0.10;0.10;;;10.30;87.90;;;;;;4950558;29;20055;-66
2023/04/22 07:13:45;;;;;;;0.00;0.00;;;10.40;87.80;;;;;;4963852;28;20119;-65
2023/04/22 07:16:11;;;;;;;0.00;0.00;;;10.50;87.90;;;;;;4969442;28;20088;-65
2023/04/22 07:18:38;;;;;;;0.00;0.00;;;10.60;87.80;;;;;;4943146;28;20058;-66
2023/04/22 07:21:04;;;;;;;0.00;0.00;;;10.60;88.00;;;;;;4953647;28;20094;-66
2023/04/22 07:23:30;;;;;;;0.00;0.00;;;10.70;88.00;;;;;;4952367;28;20113;-66
2023/04/22 07:25:55;;;;;;;0.00;0.00;;;10.70;87.90;;;;;;4953724;28;20463;-66
2023/04/22 07:28:21;;;;;;;0.00;0.00;;;10.80;88.00;;;;;;4943173;28;20050;-65
2023/04/22 07:30:47;;;;;;;0.22;0.22;;;10.90;88.10;;;;;;4952370;28;20081;-65
2023/04/22 07:33:13;;;;;;;0.00;0.00;;;11.00;88.00;;;;;;4954767;28;20113;-65
2023/04/22 07:35:39;;;;;;;0.00;0.00;;;11.00;87.80;;;;;;4949503;28;20142;-65
2023/04/22 07:38:04;;;;;;;0.00;0.00;;;11.10;87.80;;;;;;4945191;28;20051;-66
2023/04/22 07:40:30;;;;;;;1.25;0.73;;;11.20;87.70;;;;;;4959884;28;20055;-64
2023/04/22 07:42:55;;;;;;;0.00;0.00;;;11.30;87.60;;;;;;4961446;28;20045;-64
2023/04/22 07:45:21;;;;;;;0.00;0.00;;;11.40;87.60;;;;;;4952539;28;20062;-65
2023/04/22 07:47:47;;;;;;;0.00;0.00;;;11.50;87.60;;;;;;4962338;28;20515;-65
2023/04/22 07:50:12;;;;;;;0.00;0.00;;;11.60;87.60;;;;;;4961370;28;20062;-64
2023/04/22 07:52:38;;;;;;;0.00;0.00;;;11.60;87.50;;;;;;4960624;28;20887;-64
2023/04/22 07:55:04;;;;;;;0.00;0.00;;;11.80;87.50;;;;;;4966353;28;20132;-65
2023/04/22 07:57:31;;;;;;;0.00;0.00;;;11.80;87.50;;;;;;4965547;28;20644;-65
2023/04/22 07:59:57;;;;;;;0.10;0.10;;;11.80;87.20;;;;;;4950694;28;20075;-65
2023/04/22 08:02:22;;;;;;;0.00;0.00;;;12.00;87.10;;;;;;4965492;28;20133;-64
2023/04/22 08:04:48;;;;;;;0.17;0.17;;;12.00;87.00;;;;;;4970253;28;20038;-65
2023/04/22 08:07:14;;;;;;;0.00;0.00;;;12.10;86.90;;;;;;4968662;28;20039;-64
2023/04/22 08:09:40;;;;;;;0.00;0.00;;;12.20;86.90;;;;;;4958023;28;20427;-63
2023/04/22 08:12:05;;;;;;;0.00;0.00;;;12.30;86.90;;;;;;4935128;28;20050;-64
2023/04/22 08:14:31;;;;;;;0.00;0.00;;;12.40;87.00;;;;;;4950498;28;20148;-65
2023/04/22 08:16:56;;;;;;;0.00;0.00;;;12.40;87.00;;;;;;4967742;28;20113;-65
2023/04/22 08:19:22;;;;;;;0.00;0.00;;;12.60;87.00;;;;;;4967620;28;20066;-66
2023/04/22 08:21:47;;;;;;;0.05;0.05;;;12.60;87.00;;;;;;4967163;28;20038;-65
2023/04/22 08:24:13;;;;;;;0.00;0.00;;;12.60;86.90;;;;;;4934550;28;20054;-65
2023/04/22 08:26:39;;;;;;;0.00;0.00;;;12.80;86.80;;;;;;4965296;28;20087;-65
2023/04/22 08:29:05;;;;;;;0.00;0.00;;;12.80;86.60;;;;;;4957254;28;20059;-65
2023/04/22 08:31:31;;;;;;;0.00;0.00;;;12.90;86.50;;;;;;4957087;28;20055;-64
2023/04/22 08:33:57;;;;;;;0.00;0.00;;;12.90;86.50;;;;;;4964514;28;20051;-64
2023/04/22 08:36:24;;;;;;;0.10;0.10;;;12.90;86.20;;;;;;4953876;28;20069;-65
2023/04/22 08:38:50;;;;;;;0.00;0.00;;;13.00;86.10;;;;;;4967765;28;20507;-64
2023/04/22 08:41:20;;;;;;;0.00;0.00;;;13.10;86.20;;;;;;4967985;28;20070;-65
2023/04/22 08:43:47;;;;;;;0.00;0.00;;;13.10;86.10;;;;;;4945732;29;20101;-65
2023/04/22 08:46:14;;;;;;;0.00;0.00;;;13.20;86.00;;;;;;4948591;29;20101;-66
2023/04/22 08:48:40;;;;;;;0.00;0.00;;;13.30;85.80;;;;;;4932694;29;20059;-64
2023/04/22 08:51:07;;;;;;;0.00;0.00;;;13.30;85.70;;;;;;4957773;28;20051;-65
2023/04/22 08:53:32;;;;;;;0.00;0.00;;;13.30;85.40;;;;;;4971098;28;20050;-64
2023/04/22 08:55:59;;;;;;;0.00;0.00;;;13.40;85.30;;;;;;4970882;28;20733;-65
2023/04/22 08:58:26;;;;;;;0.00;0.00;;;13.40;85.10;;;;;;4953626;28;20062;-65
2023/04/22 09:00:55;;;;;;;0.10;0.10;;;13.50;85.00;;;;;;4971205;28;20836;-65
2023/04/22 09:03:22;;;;;;;0.00;0.00;;;13.60;84.90;;;;;;4970953;28;20427;-63
2023/04/22 09:05:50;;;;;;;0.00;0.00;;;13.60;84.80;;;;;;4948427;28;20723;-66
2023/04/22 09:08:15;;;;;;;0.00;0.00;;;13.60;84.70;;;;;;4969184;28;20039;-63
2023/04/22 09:10:41;;;;;;;0.10;0.10;;;13.70;84.80;;;;;;4970353;28;20051;-63
2023/04/22 09:13:07;;;;;;;0.00;0.00;;;13.80;84.70;;;;;;4966410;28;20044;-63
2023/04/22 09:15:32;;;;;;;0.45;0.25;;;13.80;84.70;;;;;;4952898;28;20058;-64
2023/04/22 09:17:58;;;;;;;0.00;0.00;;;13.90;84.70;;;;;;4970945;28;20051;-63
2023/04/22 09:20:28;;;;;;;0.10;0.10;;;13.90;84.30;;;;;;4967144;28;20093;-63
2023/04/22 09:22:56;;;;;;;0.45;0.45;;;14.10;84.10;;;;;;4950920;29;20051;-63
2023/04/22 09:25:26;;;;;;;0.20;0.20;;;14.10;84.00;;;;;;4934077;29;20393;-64
2023/04/22 09:27:54;;;;;;;0.08;0.08;;;14.10;83.90;;;;;;4934113;29;20126;-65
2023/04/22 09:30:31;;;;;;;0.00;0.00;;;14.30;84.10;;;;;;4951512;29;20170;-64
2023/04/22 09:32:58;;;;;;;0.00;0.00;;;14.30;84.00;;;;;;4941951;28;20054;-65
2023/04/22 09:35:37;;;;;;;0.00;0.00;;;14.40;83.90;;;;;;4956571;28;20066;-64
2023/04/22 09:38:06;;;;;;;0.10;0.10;;;14.50;83.70;;;;;;4969719;28;20129;-64
2023/04/22 09:40:33;;;;;;;0.03;0.03;;;14.50;83.40;;;;;;4970665;28;20117;-64
2023/04/22 09:43:01;;;;;;;0.00;0.00;;;14.50;83.10;;;;;;4971517;28;20051;-63
2023/04/22 09:45:32;;;;;;;0.00;0.00;;;14.50;83.00;;;;;;4972019;28;20061;-64
2023/04/22 09:48:07;;;;;;;0.13;0.13;;;14.60;84.20;;;;;;4971489;28;20146;-64
2023/04/22 09:50:33;;;;;;;0.00;0.00;;;15.10;84.70;;;;;;4970385;28;20054;-64
2023/04/22 09:53:01;;;;;;;0.05;0.05;;;15.40;83.70;;;;;;4971427;28;20451;-63
2023/04/22 09:55:29;;;;;;;0.00;0.00;;;15.60;83.10;;;;;;4952170;29;20145;-63
2023/04/22 09:57:56;;;;;;;0.00;0.00;;;15.60;81.60;;;;;;4951562;29;20066;-63
2023/04/22 10:00:26;;;;;;;0.20;0.20;;;15.60;81.30;;;;;;4952169;28;20053;-63
2023/04/22 10:02:51;;;;;;;0.00;0.00;;;15.60;81.00;;;;;;4952863;29;20485;-63
2023/04/22 10:05:17;;;;;;;0.00;0.00;;;15.50;81.10;;;;;;4961086;28;20047;-62
2023/04/22 10:07:44;;;;;;;0.00;0.00;;;15.50;80.80;;;;;;4970534;28;20047;-63
2023/04/22 10:10:09;;;;;;;0.00;0.00;;;15.30;80.70;;;;;;4972391;28;20050;-63
2023/04/22 10:12:36;;;;;;;0.00;0.00;;;15.30;80.30;;;;;;4971682;28;20067;-63
2023/04/22 10:15:05;;;;;;;0.00;0.00;;;15.40;80.60;;;;;;4954444;28;20057;-63
2023/04/22 10:17:33;;;;;;;0.00;0.00;;;15.30;80.00;;;;;;4971764;28;20055;-63
2023/04/22 10:20:03;;;;;;;0.00;0.00;;;15.40;80.40;;;;;;4954193;28;20392;-64
2023/04/22 10:22:33;;;;;;;0.20;0.20;;;15.50;80.40;;;;;;4954540;28;20407;-63
2023/04/22 10:24:58;;;;;;;0.00;0.00;;;15.50;80.80;;;;;;4954069;28;20050;-63
2023/04/22 10:27:24;;;;;;;0.03;0.03;;;15.60;80.10;;;;;;4971369;28;20043;-63
2023/04/22 10:29:50;;;;;;;1.20;1.08;;;15.50;79.70;;;;;;4954414;28;20456;-63
2023/04/22 10:32:18;;;;;;;0.00;0.00;;;15.60;80.30;;;;;;4971520;28;20050;-63
2023/04/22 10:34:48;;;;;;;0.20;0.20;;;15.70;80.50;;;;;;4971194;28;20145;-63
2023/04/22 10:37:18;;;;;;;0.10;0.10;;;15.80;80.40;;;;;;4954062;28;20134;-63
2023/04/22 10:40:07;;;;;;;0.10;0.10;;;15.80;80.10;;;;;;4953672;28;20468;-62
2023/04/22 10:42:34;;;;;;;0.00;0.00;;;15.80;80.00;;;;;;4954146;28;20039;-63
2023/04/22 10:45:02;;;;;;;0.13;0.13;;;15.80;80.20;;;;;;4971493;28;20058;-63
2023/04/22 10:47:29;;;;;;;0.00;0.00;;;15.90;80.40;;;;;;4971179;28;20051;-63
2023/04/22 10:50:16;;;;;;;0.00;0.00;;;16.00;80.30;;;;;;4971091;28;20526;-63
2023/04/22 10:52:51;;;;;;;0.00;0.00;;;16.10;79.90;;;;;;4971129;28;20405;-63
2023/04/22 10:55:18;;;;;;;0.05;0.05;;;16.20;79.80;;;;;;4971211;28;20055;-63
2023/04/22 10:57:45;;;;;;;0.00;0.00;;;16.40;79.90;;;;;;4970957;28;20126;-62
2023/04/22 11:00:23;;;;;;;0.00;0.00;;;16.50;79.20;;;;;;4971076;28;20138;-63
2023/04/22 11:03:12;;;;;;;0.03;0.03;;;16.60;77.90;;;;;;4937954;28;20055;-63
2023/04/22 11:05:39;;;;;;;0.00;0.00;;;16.60;77.30;;;;;;4963131;28;20503;-63
2023/04/22 11:08:15;;;;;;;0.08;0.08;;;16.60;77.80;;;;;;4953703;28;20065;-63
2023/04/22 11:10:43;;;;;;;0.00;0.00;;;16.80;77.50;;;;;;4953409;28;20082;-62
2023/04/22 11:13:12;;;;;;;0.15;0.10;;;16.90;77.70;;;;;;4937431;28;20101;-63
2023/04/22 11:15:40;;;;;;;0.00;0.00;;;17.00;77.20;;;;;;4970719;28;20511;-63
2023/04/22 11:18:13;;;;;;;0.00;0.00;;;17.10;77.20;;;;;;4970766;28;20051;-63
2023/04/22 11:20:39;;;;;;;0.10;0.10;;;17.10;75.90;;;;;;4970228;28;20078;-63
2023/04/22 11:23:05;;;;;;;0.00;0.00;;;17.20;75.60;;;;;;4970551;28;20129;-63
2023/04/22 11:25:30;;;;;;;0.00;0.00;;;17.20;75.70;;;;;;4970641;28;20054;-64
2023/04/22 11:27:57;;;;;;;0.00;0.00;;;17.20;75.80;;;;;;4952175;28;20046;-64
2023/04/22 11:30:24;;;;;;;0.00;0.00;;;17.30;75.90;;;;;;4968547;28;20050;-63
2023/04/22 11:32:59;;;;;;;0.10;0.10;;;17.50;76.70;;;;;;4968238;28;20519;-63
2023/04/22 11:35:30;;;;;;;1.08;0.40;;;17.60;75.10;;;;;;4965356;28;20046;-64
2023/04/22 11:37:58;;;;;;;0.00;0.00;;;17.80;75.70;;;;;;4968189;28;20049;-63
2023/04/22 11:40:32;;;;;;;0.80;0.30;;;18.10;75.70;;;;;;4969001;28;20063;-63
2023/04/22 11:43:01;;;;;;;0.00;0.00;;;18.10;75.40;;;;;;4969835;28;20058;-63
2023/04/22 11:45:29;;;;;;;0.00;0.00;;;18.30;75.80;;;;;;4969730;28;20046;-63
2023/04/22 11:47:55;;;;;;;0.30;0.30;;;18.30;72.60;;;;;;4967367;28;20039;-64
2023/04/22 11:50:23;;;;;;;0.00;0.00;;;18.40;71.30;;;;;;4969239;28;20066;-63
2023/04/22 11:52:57;;;;;;;0.00;0.00;;;18.40;71.60;;;;;;4921943;29;20047;-63
2023/04/22 11:55:29;;;;;;;0.00;0.00;;;18.40;71.50;;;;;;4966968;28;20058;-63
2023/04/22 11:58:16;;;;;;;0.00;0.00;;;18.60;72.40;;;;;;4969355;28;20484;-63
2023/04/22 12:00:48;;;;;;;0.00;0.00;;;18.60;73.10;;;;;;4959978;28;20415;-63
2023/04/22 12:03:19;;;;;;;0.00;0.00;;;18.60;73.10;;;;;;4969543;28;20047;-63
2023/04/22 12:05:46;;;;;;;0.03;0.03;;;18.60;72.70;;;;;;4968030;28;20058;-63
2023/04/22 12:08:20;;;;;;;0.00;0.00;;;18.60;71.90;;;;;;4968889;28;20050;-63
2023/04/22 12:10:48;;;;;;;0.00;0.00;;;18.70;72.90;;;;;;4969003;28;20051;-63
2023/04/22 12:13:22;;;;;;;0.00;0.00;;;18.70;71.20;;;;;;4969208;28;20428;-63
2023/04/22 12:15:54;;;;;;;3.40;0.52;;;18.70;71.40;;;;;;4969337;28;20054;-63
2023/04/22 12:18:32;;;;;;;0.00;0.00;;;18.70;71.60;;;;;;4969869;28;20074;-63
2023/04/22 12:21:11;;;;;;;0.15;0.15;;;18.60;71.40;;;;;;4969190;28;20061;-64
2023/04/22 12:23:43;;;;;;;0.00;0.00;;;18.60;72.70;;;;;;4953599;28;20047;-64
2023/04/22 12:26:10;;;;;;;0.00;0.00;;;18.60;72.80;;;;;;4973045;28;20062;-64
2023/04/22 12:28:39;;;;;;;0.00;0.00;;;18.70;72.70;;;;;;4973378;28;20137;-64
2023/04/22 12:31:05;;;;;;;0.13;0.13;;;18.60;68.70;;;;;;4973005;28;20475;-64
2023/04/22 12:33:32;;;;;;;0.00;0.00;;;18.50;69.40;;;;;;4972450;28;20047;-64
2023/04/22 12:35:58;;;;;;;0.00;0.00;;;18.50;69.10;;;;;;4972809;28;20043;-63
2023/04/22 12:38:23;;;;;;;0.63;0.45;;;18.30;67.60;;;;;;4971644;28;20054;-64
2023/04/22 12:40:50;;;;;;;0.10;0.10;;;18.20;67.70;;;;;;4972724;28;20504;-63
2023/04/22 12:43:16;;;;;;;0.00;0.00;;;18.10;68.30;;;;;;4973268;28;20050;-63
2023/04/22 12:45:41;;;;;;;0.00;0.00;;;18.10;70.00;;;;;;4955655;28;20055;-63
2023/04/22 12:48:07;;;;;;;0.30;0.30;;;18.10;70.60;;;;;;4972283;28;20380;-63